Time;durP1;ratioP1;P1;durP2;ratioP2;P2;SDS_P1;SDS_P2;PMS_P1;PMS_P2;Temp;Humidity;BMP_temperature;BMP_pressure;BME280_temperature;BME280_humidity;BME280_pressure;Samples;Min_cycle;Max_cycle;Signal;HPM_P1;HPM_P2
2023/01/03 00:00:48;;;;;;;8.00;5.17;;;6.60;99.90;;;;;;5020498;28;20308;-62
2023/01/03 00:03:16;;;;;;;7.20;5.43;;;6.70;99.90;;;;;;5011511;28;20179;-62
2023/01/03 00:05:43;;;;;;;8.63;5.87;;;6.60;99.90;;;;;;5013243;28;20188;-61
2023/01/03 00:08:09;;;;;;;6.07;5.47;;;6.60;99.90;;;;;;5013030;28;20226;-61
2023/01/03 00:10:35;;;;;;;6.33;5.00;;;6.60;99.90;;;;;;4985855;28;20615;-62
2023/01/03 00:13:00;;;;;;;8.17;5.43;;;6.60;99.90;;;;;;5012649;28;20191;-62
2023/01/03 00:15:26;;;;;;;9.17;5.63;;;6.60;99.90;;;;;;5032478;28;20179;-61
2023/01/03 00:17:54;;;;;;;6.70;6.00;;;6.60;99.90;;;;;;5017600;28;20187;-62
2023/01/03 00:20:20;;;;;;;8.30;5.30;;;6.60;99.90;;;;;;5020998;28;20215;-61
2023/01/03 00:22:46;;;;;;;9.43;6.43;;;6.60;99.90;;;;;;5039011;28;20538;-62
2023/01/03 00:25:12;;;;;;;8.67;5.17;;;6.50;99.90;;;;;;5016653;28;20181;-62
2023/01/03 00:27:37;;;;;;;5.83;4.77;;;6.70;99.90;;;;;;5016738;28;20272;-61
2023/01/03 00:30:04;;;;;;;7.60;5.73;;;6.80;99.90;;;;;;5012917;28;20594;-62
2023/01/03 00:32:30;;;;;;;8.83;5.73;;;6.80;99.90;;;;;;5013187;28;20184;-62
2023/01/03 00:34:55;;;;;;;8.80;6.20;;;6.90;99.90;;;;;;5011376;28;20249;-62
2023/01/03 00:37:21;;;;;;;12.20;6.67;;;7.00;99.90;;;;;;4997509;28;20180;-61
2023/01/03 00:39:46;;;;;;;11.40;5.97;;;7.00;99.90;;;;;;5029351;28;20226;-62
2023/01/03 00:42:12;;;;;;;8.27;6.00;;;6.80;99.90;;;;;;5018129;28;20215;-62
2023/01/03 00:44:38;;;;;;;8.23;5.93;;;6.80;99.90;;;;;;5011322;28;20266;-61
2023/01/03 00:47:04;;;;;;;10.73;6.47;;;6.80;99.90;;;;;;5012656;28;20191;-62
2023/01/03 00:49:29;;;;;;;10.43;6.03;;;6.80;99.90;;;;;;5016089;28;20174;-62
2023/01/03 00:51:55;;;;;;;8.17;6.33;;;6.80;99.90;;;;;;5028820;28;20222;-62
2023/01/03 00:54:21;;;;;;;7.70;6.33;;;6.70;99.90;;;;;;5014910;28;20214;-62
2023/01/03 00:56:48;;;;;;;17.27;8.10;;;6.70;99.90;;;;;;5018893;28;20230;-62
2023/01/03 00:59:16;;;;;;;10.40;6.53;;;6.70;99.90;;;;;;5010852;28;20185;-62
2023/01/03 01:01:48;;;;;;;9.40;6.03;;;6.70;99.90;;;;;;5017280;28;20680;-61
2023/01/03 01:04:17;;;;;;;9.83;5.60;;;6.80;99.90;;;;;;5024362;28;20261;-61
2023/01/03 01:06:46;;;;;;;11.50;6.20;;;6.90;99.90;;;;;;5013868;28;20195;-62
2023/01/03 01:09:14;;;;;;;7.57;5.43;;;6.80;99.90;;;;;;5015864;28;20194;-62
2023/01/03 01:11:40;;;;;;;7.37;5.33;;;6.90;99.90;;;;;;5022340;28;20183;-61
2023/01/03 01:14:18;;;;;;;10.80;5.80;;;7.20;99.90;;;;;;5031982;28;20191;-61
2023/01/03 01:16:52;;;;;;;8.53;5.63;;;7.10;99.90;;;;;;5016741;28;20195;-61
2023/01/03 01:19:22;;;;;;;11.63;6.30;;;6.90;99.90;;;;;;5023651;28;20181;-61
2023/01/03 01:21:48;;;;;;;9.40;6.00;;;7.10;99.90;;;;;;5007099;28;20218;-62
2023/01/03 01:24:14;;;;;;;10.93;6.33;;;7.30;99.90;;;;;;5016451;28;20266;-62
2023/01/03 01:26:39;;;;;;;12.43;6.57;;;7.40;99.90;;;;;;5016286;28;20279;-61
2023/01/03 01:29:05;;;;;;;11.00;6.43;;;7.50;99.90;;;;;;5015339;28;20219;-62
2023/01/03 01:31:31;;;;;;;8.97;6.37;;;7.50;99.90;;;;;;5030999;28;20195;-62
2023/01/03 01:33:57;;;;;;;15.23;7.47;;;7.50;99.90;;;;;;5013792;28;20199;-61
2023/01/03 01:36:26;;;;;;;12.17;7.30;;;7.40;99.90;;;;;;5009361;28;20718;-61
2023/01/03 01:38:55;;;;;;;10.23;7.10;;;7.30;99.90;;;;;;5014662;28;20554;-61
2023/01/03 01:44:38;;;;;;;10.83;6.43;;;7.00;99.90;;;;;;5011602;28;20193;-62
2023/01/03 01:47:04;;;;;;;10.80;6.13;;;6.90;99.90;;;;;;5012555;28;20183;-62
2023/01/03 01:49:31;;;;;;;10.13;6.60;;;6.90;99.90;;;;;;5016924;28;20183;-62
2023/01/03 01:51:56;;;;;;;9.33;5.47;;;7.00;99.90;;;;;;5014133;28;20246;-62
2023/01/03 01:54:23;;;;;;;8.43;6.67;;;6.90;99.90;;;;;;5030371;28;20600;-62
2023/01/03 01:56:52;;;;;;;9.37;6.97;;;6.70;99.90;;;;;;5023820;28;20197;-62
2023/01/03 01:59:17;;;;;;;9.70;7.13;;;6.60;99.90;;;;;;5019806;28;20254;-62
2023/01/03 02:01:46;;;;;;;12.63;6.47;;;6.70;99.90;;;;;;5024752;28;20307;-62
2023/01/03 02:04:20;;;;;;;9.63;6.83;;;6.70;99.90;;;;;;5017674;28;20628;-61
2023/01/03 02:06:46;;;;;;;8.93;6.30;;;6.90;99.90;;;;;;5017087;28;20189;-61
2023/01/03 02:09:12;;;;;;;15.00;6.80;;;7.00;99.90;;;;;;5030215;28;20191;-61
2023/01/03 02:13:04;;;;;;;9.33;5.87;;;6.90;99.90;;;;;;5017917;28;20191;-61
2023/01/03 02:14:51;;;;;;;8.43;6.20;;;6.70;99.90;;;;;;5014736;28;20261;-61
2023/01/03 02:17:40;;;;;;;7.60;6.07;;;6.80;99.90;;;;;;5015341;28;20205;-61
2023/01/03 02:20:31;;;;;;;12.67;7.40;;;6.70;99.90;;;;;;5013652;28;20234;-65
2023/01/03 02:23:37;;;;;;;11.43;6.63;;;6.70;99.90;;;;;;5012186;28;20187;-62
2023/01/03 02:26:50;;;;;;;10.30;6.87;;;6.60;99.90;;;;;;5007430;28;20184;-62
2023/01/03 02:29:47;;;;;;;7.77;5.70;;;6.60;99.90;;;;;;5003035;28;20206;-62
2023/01/03 02:32:41;;;;;;;8.50;5.73;;;6.60;99.90;;;;;;5007043;28;20199;-61
2023/01/03 02:35:21;;;;;;;8.33;5.80;;;6.70;99.90;;;;;;5024811;28;20577;-61
2023/01/03 02:38:13;;;;;;;7.40;6.00;;;6.80;99.90;;;;;;5016816;28;20210;-63
2023/01/03 02:40:45;;;;;;;8.53;5.30;;;6.60;99.90;;;;;;5016155;28;20203;-62
2023/01/03 02:43:24;;;;;;;13.67;7.03;;;6.50;99.90;;;;;;5014542;28;20190;-62
2023/01/03 02:45:57;;;;;;;9.93;6.23;;;6.30;99.90;;;;;;5025050;28;20190;-62
2023/01/03 02:48:39;;;;;;;9.57;6.30;;;6.30;99.90;;;;;;5016055;28;20195;-62
2023/01/03 02:51:30;;;;;;;14.87;6.07;;;6.30;99.90;;;;;;5014311;28;20195;-62
2023/01/03 02:53:58;;;;;;;11.83;6.43;;;6.20;99.90;;;;;;5011853;28;20258;-63
2023/01/03 02:56:28;;;;;;;8.80;5.53;;;6.10;99.90;;;;;;5007977;28;20191;-61
2023/01/03 02:59:01;;;;;;;10.27;6.87;;;6.20;99.90;;;;;;5023974;28;20179;-61
2023/01/03 03:01:28;;;;;;;13.47;6.40;;;6.30;99.90;;;;;;5015775;28;20207;-62
2023/01/03 03:03:55;;;;;;;8.13;5.93;;;6.20;99.90;;;;;;5014242;28;20199;-62
2023/01/03 03:06:30;;;;;;;11.23;6.53;;;6.30;99.90;;;;;;5029476;28;20219;-61
2023/01/03 03:08:56;;;;;;;11.53;5.73;;;6.30;99.90;;;;;;5014347;28;20186;-61
2023/01/03 03:14:16;;;;;;;6.63;5.37;;;6.30;99.90;;;;;;5006530;28;20550;-62
2023/01/03 03:16:48;;;;;;;10.60;5.70;;;6.40;99.90;;;;;;5013127;28;20183;-61
2023/01/03 03:25:48;;;;;;;8.63;5.43;;;6.30;99.90;;;;;;5020028;28;20186;-61
2023/01/03 03:28:36;;;;;;;9.27;5.20;;;6.40;99.90;;;;;;5015175;28;20188;-61
2023/01/03 03:31:21;;;;;;;8.13;4.87;;;6.50;99.90;;;;;;5011968;28;20195;-61
2023/01/03 03:34:02;;;;;;;8.03;6.33;;;6.60;99.90;;;;;;5017144;28;20298;-62
2023/01/03 03:36:50;;;;;;;9.40;4.97;;;6.60;99.90;;;;;;5023398;28;20259;-61
2023/01/03 03:45:16;;;;;;;9.03;5.67;;;6.70;99.90;;;;;;5015963;28;20661;-61
2023/01/03 03:47:51;;;;;;;8.73;6.17;;;6.60;99.90;;;;;;5015084;28;20191;-61
2023/01/03 03:50:16;;;;;;;9.90;5.80;;;6.70;99.90;;;;;;5009152;28;20221;-61
2023/01/03 03:52:46;;;;;;;10.10;5.50;;;6.80;99.90;;;;;;5012747;28;20207;-61
2023/01/03 03:55:43;;;;;;;11.30;5.87;;;6.80;99.90;;;;;;5024316;28;20202;-61
2023/01/03 03:58:20;;;;;;;10.27;6.00;;;6.80;99.90;;;;;;4996355;28;20253;-61
2023/01/03 04:00:48;;;;;;;9.40;7.13;;;6.90;99.90;;;;;;5001303;28;20273;-61
2023/01/03 04:03:16;;;;;;;8.60;5.53;;;7.00;99.90;;;;;;5021713;28;20654;-60
2023/01/03 04:05:48;;;;;;;12.03;6.03;;;7.00;99.90;;;;;;5018136;28;20191;-60
2023/01/03 04:08:14;;;;;;;12.93;5.07;;;7.10;99.90;;;;;;5013766;28;20645;-61
2023/01/03 04:10:40;;;;;;;8.70;6.50;;;7.00;99.90;;;;;;4992534;28;20199;-61
2023/01/03 04:13:05;;;;;;;12.37;6.13;;;7.10;99.90;;;;;;5018362;28;20605;-61
2023/01/03 04:15:31;;;;;;;8.30;5.87;;;7.20;99.90;;;;;;5012967;28;20191;-62
2023/01/03 04:17:57;;;;;;;12.40;5.50;;;7.20;99.90;;;;;;5013368;28;20190;-62
2023/01/03 04:20:22;;;;;;;12.30;6.33;;;7.30;99.90;;;;;;5012984;28;20341;-61
2023/01/03 04:22:48;;;;;;;10.70;5.73;;;7.40;99.90;;;;;;5028145;28;20201;-62
2023/01/03 04:25:14;;;;;;;9.27;5.50;;;7.30;99.90;;;;;;5026656;28;20467;-61
2023/01/03 04:27:39;;;;;;;6.67;5.47;;;7.30;99.90;;;;;;5019028;28;20191;-61
2023/01/03 04:30:05;;;;;;;13.17;5.97;;;7.10;99.90;;;;;;5012687;28;20279;-61
2023/01/03 04:32:31;;;;;;;9.97;6.43;;;7.10;99.90;;;;;;5027481;28;20195;-62
2023/01/03 04:34:57;;;;;;;8.53;5.83;;;6.90;99.90;;;;;;5012092;28;20180;-61
2023/01/03 04:37:22;;;;;;;9.00;6.27;;;6.90;99.90;;;;;;5027763;28;20668;-61
2023/01/03 04:39:48;;;;;;;15.20;6.80;;;7.00;99.90;;;;;;5020307;28;20192;-61
2023/01/03 04:44:58;;;;;;;13.57;5.93;;;7.00;99.90;;;;;;5010770;28;20198;-62
2023/01/03 04:47:23;;;;;;;12.37;7.33;;;7.10;99.90;;;;;;5022311;28;20552;-61
2023/01/03 04:49:49;;;;;;;11.30;6.03;;;7.10;99.90;;;;;;5015108;28;20636;-61
2023/01/03 04:52:15;;;;;;;10.13;6.20;;;7.10;99.90;;;;;;5017828;28;20195;-62
2023/01/03 04:54:42;;;;;;;10.90;7.10;;;7.20;99.90;;;;;;5019356;28;20206;-62
2023/01/03 04:57:08;;;;;;;10.93;5.73;;;7.40;99.90;;;;;;5012713;28;20225;-61
2023/01/03 04:59:34;;;;;;;10.20;7.30;;;7.30;99.90;;;;;;5020396;28;20743;-61
2023/01/03 05:02:00;;;;;;;11.37;6.97;;;7.40;99.90;;;;;;5011879;28;20215;-62
2023/01/03 05:04:27;;;;;;;18.17;7.47;;;7.40;99.90;;;;;;5011963;28;20210;-60
2023/01/03 05:06:53;;;;;;;11.23;5.83;;;7.40;99.90;;;;;;5024365;28;20195;-60
2023/01/03 05:09:19;;;;;;;17.93;7.80;;;7.50;99.90;;;;;;5027100;28;20183;-60
2023/01/03 05:11:45;;;;;;;11.17;7.30;;;7.50;99.90;;;;;;5009337;28;20722;-61
2023/01/03 05:14:11;;;;;;;12.60;6.93;;;7.40;99.90;;;;;;5012542;28;20643;-61
2023/01/03 05:16:36;;;;;;;12.97;7.67;;;7.40;99.90;;;;;;5027398;28;20771;-61
2023/01/03 05:19:02;;;;;;;15.43;7.77;;;7.40;99.90;;;;;;5012561;28;20663;-61
2023/01/03 05:26:59;;;;;;;13.77;8.47;;;7.30;99.90;;;;;;5008428;28;20216;-60
2023/01/03 05:29:26;;;;;;;19.40;8.40;;;7.40;99.90;;;;;;5011650;28;20196;-61
2023/01/03 05:31:52;;;;;;;16.33;8.93;;;7.30;99.90;;;;;;5012176;28;20632;-62
2023/01/03 05:34:18;;;;;;;18.07;9.13;;;7.20;99.90;;;;;;5027031;28;20195;-62
2023/01/03 05:36:44;;;;;;;14.33;7.83;;;7.20;99.90;;;;;;5010808;28;20561;-61
2023/01/03 05:39:09;;;;;;;16.33;8.87;;;7.20;99.90;;;;;;5012009;28;20183;-63
2023/01/03 05:44:19;;;;;;;17.90;8.63;;;7.10;99.90;;;;;;5006195;28;20198;-62
2023/01/03 05:46:45;;;;;;;22.33;9.23;;;7.10;99.90;;;;;;5012319;28;20195;-61
2023/01/03 05:49:11;;;;;;;18.43;9.73;;;7.20;99.90;;;;;;5012300;28;20540;-62
2023/01/03 05:51:36;;;;;;;24.53;10.53;;;7.40;99.90;;;;;;5019435;28;20227;-62
2023/01/03 05:54:02;;;;;;;21.10;10.30;;;7.40;99.90;;;;;;5011378;28;20199;-62
2023/01/03 05:56:29;;;;;;;23.87;9.27;;;7.40;99.90;;;;;;5014895;28;20188;-62
2023/01/03 05:58:55;;;;;;;16.33;8.67;;;7.50;99.90;;;;;;5018668;28;20199;-62
2023/01/03 06:01:21;;;;;;;17.63;8.90;;;7.50;99.90;;;;;;5020761;28;20369;-62
2023/01/03 06:03:47;;;;;;;18.90;10.30;;;7.60;99.90;;;;;;5010673;28;20270;-61
2023/01/03 06:06:14;;;;;;;18.77;8.60;;;7.60;99.90;;;;;;5020724;28;20187;-61
2023/01/03 06:08:40;;;;;;;26.10;11.13;;;7.60;99.90;;;;;;5015607;28;20187;-60
2023/01/03 06:11:07;;;;;;;19.73;9.73;;;7.70;99.90;;;;;;5014777;28;20555;-61
2023/01/03 06:13:33;;;;;;;18.40;9.60;;;7.60;99.90;;;;;;5015540;28;20210;-61
2023/01/03 06:19:04;;;;;;;20.70;10.20;;;7.60;99.90;;;;;;5017263;28;20194;-61
2023/01/03 06:21:30;;;;;;;18.90;9.40;;;7.70;99.90;;;;;;5014947;28;20669;-61
2023/01/03 06:23:56;;;;;;;20.40;10.30;;;7.70;99.90;;;;;;5015507;28;20289;-61
2023/01/03 06:26:23;;;;;;;24.60;10.83;;;7.70;99.90;;;;;;5017915;28;20188;-61
2023/01/03 06:28:50;;;;;;;20.30;9.60;;;7.80;99.90;;;;;;5015155;28;20202;-61
2023/01/03 06:31:16;;;;;;;20.53;10.07;;;7.70;99.90;;;;;;5015138;28;20287;-61
2023/01/03 06:33:42;;;;;;;26.83;11.13;;;7.80;99.90;;;;;;5015660;28;20198;-61
2023/01/03 06:36:25;;;;;;;17.60;7.93;;;7.80;99.90;;;;;;5040091;28;20274;-60
2023/01/03 06:38:52;;;;;;;20.37;8.67;;;7.90;99.90;;;;;;5013830;28;20199;-60
2023/01/03 06:41:18;;;;;;;16.27;8.63;;;7.90;99.90;;;;;;5014367;28;20219;-61
2023/01/03 06:43:44;;;;;;;22.77;8.57;;;8.00;99.90;;;;;;5030176;28;20200;-60
2023/01/03 06:54:32;;;;;;;16.43;7.70;;;8.10;99.90;;;;;;5003820;28;20226;-61
2023/01/03 06:56:58;;;;;;;12.80;8.10;;;8.10;99.90;;;;;;5021763;28;20187;-61
2023/01/03 06:59:24;;;;;;;18.83;8.77;;;8.10;99.90;;;;;;5029716;28;20718;-61
2023/01/03 07:01:52;;;;;;;16.03;8.23;;;8.10;99.90;;;;;;5013003;28;20251;-62
2023/01/03 07:04:18;;;;;;;14.60;7.43;;;8.10;99.90;;;;;;5029197;28;20198;-61
2023/01/03 07:06:44;;;;;;;18.67;9.73;;;8.20;99.90;;;;;;5014323;28;20192;-61
2023/01/03 07:09:10;;;;;;;19.50;8.60;;;8.10;99.90;;;;;;5012547;28;20547;-62
2023/01/03 07:11:37;;;;;;;13.10;7.80;;;8.20;99.90;;;;;;5027320;28;20290;-62
2023/01/03 07:14:04;;;;;;;11.93;6.30;;;8.20;99.90;;;;;;5021088;28;20647;-63
2023/01/03 07:16:31;;;;;;;16.53;8.37;;;8.20;99.90;;;;;;5017192;28;20210;-62
2023/01/03 07:18:57;;;;;;;13.47;7.37;;;8.20;99.90;;;;;;5014218;28;20587;-62
2023/01/03 07:21:25;;;;;;;18.27;10.03;;;8.20;99.90;;;;;;5019189;28;20222;-60
2023/01/03 07:23:56;;;;;;;17.07;8.50;;;8.20;99.90;;;;;;5012879;28;20250;-60
2023/01/03 07:26:23;;;;;;;13.67;7.23;;;8.20;99.90;;;;;;5015580;28;20648;-61
2023/01/03 07:28:50;;;;;;;17.57;7.27;;;8.20;99.90;;;;;;5017528;28;20191;-62
2023/01/03 07:31:16;;;;;;;16.37;8.63;;;8.30;99.90;;;;;;5019415;28;20198;-62
2023/01/03 07:33:43;;;;;;;16.73;8.07;;;8.50;99.90;;;;;;5018356;28;20547;-61
2023/01/03 07:36:10;;;;;;;14.30;8.67;;;8.60;99.90;;;;;;5028542;28;20548;-61
2023/01/03 07:38:37;;;;;;;11.67;6.90;;;8.60;99.90;;;;;;5013236;28;20662;-62
2023/01/03 07:41:04;;;;;;;11.70;7.83;;;8.60;99.90;;;;;;5037887;28;20222;-62
2023/01/03 07:43:35;;;;;;;13.33;7.77;;;8.40;99.90;;;;;;5028124;28;20263;-62
2023/01/03 07:46:11;;;;;;;12.90;7.90;;;8.40;99.90;;;;;;5020931;28;20250;-61
2023/01/03 07:48:37;;;;;;;14.43;6.87;;;8.40;99.90;;;;;;5013230;28;20183;-62
2023/01/03 07:51:04;;;;;;;13.30;6.67;;;8.50;99.90;;;;;;5015160;28;20245;-63
2023/01/03 07:53:31;;;;;;;12.20;7.17;;;8.50;99.90;;;;;;5018687;28;20234;-60
2023/01/03 07:56:11;;;;;;;12.93;7.97;;;8.50;99.90;;;;;;5044836;28;20237;-61
2023/01/03 07:58:37;;;;;;;15.57;7.50;;;8.60;99.90;;;;;;5018915;28;20237;-60
2023/01/03 08:01:09;;;;;;;13.00;6.90;;;8.60;99.90;;;;;;5021350;28;20277;-62
2023/01/03 08:03:36;;;;;;;16.30;6.90;;;8.50;99.90;;;;;;5015243;28;20219;-61
2023/01/03 08:06:04;;;;;;;15.80;8.23;;;8.50;99.90;;;;;;5021282;28;20589;-61
2023/01/03 08:08:30;;;;;;;10.63;7.63;;;8.50;99.90;;;;;;5013521;28;20666;-61
2023/01/03 08:13:41;;;;;;;16.23;8.13;;;8.70;99.90;;;;;;5026187;28;20253;-63
2023/01/03 08:16:10;;;;;;;17.77;7.43;;;8.70;99.90;;;;;;5013438;28;20272;-61
2023/01/03 08:18:36;;;;;;;15.20;8.13;;;8.70;99.90;;;;;;5019264;28;20193;-61
2023/01/03 08:21:02;;;;;;;13.20;8.57;;;8.70;99.90;;;;;;5028386;28;20758;-62
2023/01/03 08:23:28;;;;;;;12.30;7.37;;;8.70;99.90;;;;;;5013263;28;20189;-61
2023/01/03 08:26:05;;;;;;;20.67;7.90;;;8.60;99.90;;;;;;5013581;28;20708;-61
2023/01/03 08:28:32;;;;;;;14.30;7.77;;;8.60;99.90;;;;;;5013416;28;20178;-60
2023/01/03 08:31:01;;;;;;;15.10;7.87;;;8.60;99.90;;;;;;5012796;28;20692;-61
2023/01/03 08:33:31;;;;;;;12.60;8.67;;;8.70;99.90;;;;;;5011345;28;20254;-62
2023/01/03 08:36:02;;;;;;;14.83;7.67;;;8.70;99.90;;;;;;5008609;28;20186;-62
2023/01/03 08:38:39;;;;;;;18.13;8.20;;;8.80;99.90;;;;;;5023039;28;20183;-61
2023/01/03 08:41:06;;;;;;;13.33;7.53;;;8.90;99.90;;;;;;4999138;28;20215;-63
2023/01/03 08:43:35;;;;;;;14.10;7.83;;;8.80;99.90;;;;;;5011884;28;20199;-61
2023/01/03 08:46:04;;;;;;;15.93;8.93;;;8.70;99.90;;;;;;5012881;28;20183;-62
2023/01/03 08:48:30;;;;;;;14.83;8.60;;;8.60;99.90;;;;;;5012452;28;20206;-61
2023/01/03 08:50:55;;;;;;;15.83;8.63;;;8.60;99.90;;;;;;5028376;28;20640;-62
2023/01/03 08:53:23;;;;;;;14.93;9.77;;;8.70;99.90;;;;;;5018380;28;20289;-61
2023/01/03 08:55:48;;;;;;;16.67;8.87;;;8.90;99.90;;;;;;5011235;28;20191;-61
2023/01/03 08:58:14;;;;;;;19.13;9.10;;;8.90;99.90;;;;;;5036636;28;20679;-61
2023/01/03 09:00:40;;;;;;;18.93;9.43;;;8.80;99.90;;;;;;5020811;28;20586;-62
2023/01/03 09:03:06;;;;;;;16.77;8.07;;;9.00;99.90;;;;;;5028439;28;20184;-61
2023/01/03 09:05:32;;;;;;;20.80;8.87;;;8.90;99.90;;;;;;5012976;28;20194;-60
2023/01/03 09:07:58;;;;;;;14.87;8.37;;;8.90;99.90;;;;;;5022035;28;21646;-61
2023/01/03 09:10:24;;;;;;;17.33;8.67;;;8.80;99.90;;;;;;5013351;28;20197;-61
2023/01/03 09:12:50;;;;;;;23.80;10.00;;;8.80;99.90;;;;;;5005909;28;20614;-61
2023/01/03 09:15:16;;;;;;;14.40;9.20;;;8.80;99.90;;;;;;5017700;28;20274;-61
2023/01/03 09:17:44;;;;;;;13.17;8.37;;;8.90;99.90;;;;;;5016123;28;20183;-63
2023/01/03 09:20:14;;;;;;;16.20;10.43;;;9.00;99.90;;;;;;5027363;28;20187;-61
2023/01/03 09:22:40;;;;;;;14.30;9.00;;;9.00;99.90;;;;;;5011899;28;20278;-62
2023/01/03 09:25:06;;;;;;;21.30;9.90;;;9.00;99.90;;;;;;5012344;28;20640;-62
2023/01/03 09:27:32;;;;;;;16.00;10.50;;;8.90;99.90;;;;;;5012625;28;20633;-62
2023/01/03 09:29:58;;;;;;;15.40;9.17;;;9.00;99.90;;;;;;5017364;28;20193;-61
2023/01/03 09:32:23;;;;;;;21.83;10.23;;;9.00;99.90;;;;;;5014799;28;20223;-63
2023/01/03 09:34:49;;;;;;;20.67;10.17;;;9.10;99.90;;;;;;5015843;28;20644;-62
2023/01/03 09:37:15;;;;;;;15.57;8.87;;;9.00;99.90;;;;;;5023731;28;20573;-62
2023/01/03 09:39:41;;;;;;;14.10;8.37;;;9.00;99.90;;;;;;5016316;28;20183;-60
2023/01/03 09:44:59;;;;;;;20.10;9.90;;;9.10;99.90;;;;;;5028025;28;20262;-61
2023/01/03 09:47:25;;;;;;;17.63;9.03;;;9.00;99.90;;;;;;5014639;28;20191;-61
2023/01/03 09:49:53;;;;;;;15.77;8.33;;;8.90;99.90;;;;;;5021417;28;20202;-62
2023/01/03 10:04:42;;;;;;;8.33;4.90;;;8.80;99.90;;;;;;5014733;28;20214;-62
2023/01/03 10:07:45;;;;;;;11.13;6.50;;;8.70;99.90;;;;;;5011317;28;20180;-62
2023/01/03 10:10:43;;;;;;;11.23;6.57;;;8.70;99.90;;;;;;5016813;28;20182;-62
2023/01/03 10:13:36;;;;;;;11.73;6.47;;;8.80;99.90;;;;;;5000436;28;20231;-62
2023/01/03 10:16:23;;;;;;;10.23;6.80;;;8.90;99.90;;;;;;5016124;28;20526;-61
2023/01/03 10:19:11;;;;;;;13.37;7.13;;;9.00;99.90;;;;;;5011438;28;20199;-61
2023/01/03 10:21:57;;;;;;;21.57;8.13;;;9.10;99.90;;;;;;5014828;28;20745;-61
2023/01/03 10:24:30;;;;;;;10.47;6.63;;;9.10;99.90;;;;;;5014674;28;20187;-62
2023/01/03 10:27:12;;;;;;;9.40;6.23;;;9.10;99.90;;;;;;5015733;28;20179;-61
2023/01/03 10:29:38;;;;;;;10.70;5.77;;;9.20;99.90;;;;;;5009408;28;20186;-61
2023/01/03 10:32:37;;;;;;;7.93;6.13;;;9.30;99.90;;;;;;5021589;28;20194;-62
2023/01/03 10:35:30;;;;;;;12.97;6.27;;;9.30;99.90;;;;;;5019065;28;20179;-62
2023/01/03 10:37:56;;;;;;;12.03;5.33;;;9.40;99.90;;;;;;5007105;28;20533;-62
2023/01/03 10:40:59;;;;;;;9.43;5.77;;;9.40;99.90;;;;;;5018921;28;20207;-62
2023/01/03 10:43:32;;;;;;;7.60;4.73;;;9.30;99.90;;;;;;5014743;28;20253;-62
2023/01/03 10:45:59;;;;;;;7.37;4.83;;;9.40;99.90;;;;;;5014952;28;20190;-62
2023/01/03 10:48:37;;;;;;;9.37;4.73;;;9.40;99.90;;;;;;5014381;28;20191;-63
2023/01/03 10:51:22;;;;;;;8.50;4.97;;;9.40;99.90;;;;;;5008075;28;20586;-63
2023/01/03 10:53:50;;;;;;;5.63;4.87;;;9.40;99.90;;;;;;5014334;28;20237;-62
2023/01/03 10:56:17;;;;;;;7.97;4.50;;;9.40;99.90;;;;;;5023393;28;20237;-62
2023/01/03 10:58:42;;;;;;;5.77;4.70;;;9.40;99.90;;;;;;5015238;28;20195;-62
2023/01/03 11:01:21;;;;;;;11.33;4.47;;;9.40;99.90;;;;;;5022245;28;20746;-62
2023/01/03 11:04:10;;;;;;;7.57;4.37;;;9.40;99.90;;;;;;5018071;28;20191;-62
2023/01/03 11:06:36;;;;;;;5.50;4.90;;;9.40;99.90;;;;;;5003211;28;20179;-62
2023/01/03 11:09:09;;;;;;;6.30;4.50;;;9.60;99.90;;;;;;5012653;28;20337;-62
2023/01/03 11:11:38;;;;;;;6.00;4.13;;;9.60;99.90;;;;;;5014619;28;20210;-60
2023/01/03 11:14:17;;;;;;;7.37;4.77;;;9.70;99.90;;;;;;5014288;28;20270;-61
2023/01/03 11:16:43;;;;;;;6.90;4.77;;;9.70;99.90;;;;;;5007217;28;20232;-61
2023/01/03 11:19:17;;;;;;;7.00;4.00;;;9.80;99.90;;;;;;5020443;28;20671;-61
2023/01/03 11:22:05;;;;;;;5.47;3.70;;;9.80;99.90;;;;;;5012586;28;20250;-62
2023/01/03 11:24:53;;;;;;;6.10;4.57;;;9.80;99.90;;;;;;5017953;28;20190;-61
2023/01/03 11:27:18;;;;;;;7.63;4.40;;;9.70;99.90;;;;;;5017625;28;20591;-61
2023/01/03 11:29:58;;;;;;;8.47;4.43;;;9.80;99.90;;;;;;5013828;28;20245;-62
2023/01/03 11:32:36;;;;;;;6.07;4.50;;;9.70;99.90;;;;;;5016925;28;20226;-62
2023/01/03 11:35:16;;;;;;;5.93;3.97;;;9.80;99.90;;;;;;5013974;28;20187;-62
2023/01/03 11:38:04;;;;;;;10.27;4.00;;;9.90;99.90;;;;;;5010949;28;20283;-62
2023/01/03 11:40:51;;;;;;;12.97;4.63;;;9.90;99.90;;;;;;5015378;28;20191;-62
2023/01/03 11:43:22;;;;;;;7.67;4.67;;;9.80;99.90;;;;;;5026445;28;20195;-62
2023/01/03 11:46:05;;;;;;;8.60;4.57;;;9.90;99.90;;;;;;5017936;28;20187;-62
2023/01/03 11:49:08;;;;;;;4.80;3.83;;;9.90;99.90;;;;;;5014504;28;20270;-62
2023/01/03 11:52:03;;;;;;;6.83;4.53;;;9.90;99.90;;;;;;5009496;28;20640;-64
2023/01/03 11:54:50;;;;;;;10.00;4.53;;;10.00;99.90;;;;;;5013676;28;20199;-63
2023/01/03 11:57:24;;;;;;;8.03;5.00;;;10.10;99.90;;;;;;5001278;28;20547;-62
2023/01/03 12:00:08;;;;;;;9.13;4.13;;;10.00;99.90;;;;;;5018992;28;20645;-64
2023/01/03 12:02:40;;;;;;;5.87;5.27;;;9.80;99.90;;;;;;5020293;28;20207;-63
2023/01/03 12:05:15;;;;;;;4.97;3.73;;;9.90;99.90;;;;;;5014033;28;20191;-62
2023/01/03 12:07:59;;;;;;;6.63;4.23;;;9.90;99.90;;;;;;5003260;28;20187;-63
2023/01/03 12:10:41;;;;;;;5.50;4.07;;;10.10;99.90;;;;;;5011000;28;20210;-62
2023/01/03 12:13:10;;;;;;;5.60;4.13;;;10.10;99.90;;;;;;5004968;28;20571;-62
2023/01/03 12:15:46;;;;;;;8.80;4.90;;;10.10;99.90;;;;;;5013792;28;20195;-62
2023/01/03 12:18:27;;;;;;;6.03;4.53;;;10.20;99.90;;;;;;5013157;28;20187;-60
2023/01/03 12:21:01;;;;;;;5.83;4.00;;;10.30;99.90;;;;;;5012759;28;20215;-61
2023/01/03 12:23:36;;;;;;;5.67;3.90;;;10.50;99.90;;;;;;5013031;28;20679;-61
2023/01/03 12:26:07;;;;;;;6.43;4.47;;;10.50;99.90;;;;;;5019304;28;20610;-61
2023/01/03 12:28:36;;;;;;;6.27;3.80;;;10.50;99.90;;;;;;5022292;28;20186;-61
2023/01/03 12:31:25;;;;;;;7.27;6.30;;;10.60;99.90;;;;;;5012395;28;20199;-62
2023/01/03 12:34:27;;;;;;;8.07;4.90;;;10.50;99.90;;;;;;5003190;28;20199;-62
2023/01/03 12:37:20;;;;;;;9.60;4.67;;;10.60;99.90;;;;;;5017375;28;20187;-62
2023/01/03 12:39:56;;;;;;;8.40;4.00;;;10.60;99.90;;;;;;5009493;28;20216;-62
2023/01/03 12:42:34;;;;;;;6.03;3.47;;;10.50;99.90;;;;;;5009150;28;20260;-62
2023/01/03 12:45:24;;;;;;;5.07;3.83;;;10.40;99.90;;;;;;5012325;28;20214;-62
2023/01/03 12:48:16;;;;;;;9.53;3.70;;;10.40;99.90;;;;;;5012486;28;20202;-62
2023/01/03 12:50:53;;;;;;;11.97;4.30;;;10.30;99.90;;;;;;5022188;28;20190;-62
2023/01/03 12:53:44;;;;;;;4.77;3.37;;;10.40;99.90;;;;;;4999172;28;20617;-62
2023/01/03 12:56:33;;;;;;;5.73;3.30;;;10.40;99.90;;;;;;5009462;28;20187;-62
2023/01/03 12:59:35;;;;;;;9.77;3.80;;;10.40;99.90;;;;;;5013443;28;20663;-63
2023/01/03 13:02:28;;;;;;;5.43;3.40;;;10.40;99.90;;;;;;5027081;28;20215;-62
2023/01/03 13:05:03;;;;;;;9.07;3.93;;;10.50;99.90;;;;;;5019475;28;20195;-63
2023/01/03 13:07:31;;;;;;;5.57;4.10;;;10.50;99.90;;;;;;5028302;28;20643;-62
2023/01/03 13:10:15;;;;;;;3.77;2.93;;;10.40;99.90;;;;;;5023634;28;20278;-62
2023/01/03 13:12:51;;;;;;;7.47;3.47;;;10.50;99.90;;;;;;5025044;28;20190;-62
2023/01/03 13:15:33;;;;;;;2.73;2.53;;;10.40;99.90;;;;;;5019051;28;20628;-62
2023/01/03 13:18:20;;;;;;;6.37;3.13;;;10.50;99.90;;;;;;5031872;28;20269;-62
2023/01/03 13:20:47;;;;;;;7.20;3.70;;;10.50;99.90;;;;;;5012152;28;20225;-62
2023/01/03 13:23:28;;;;;;;3.67;3.33;;;10.40;99.90;;;;;;5020866;28;20195;-62
2023/01/03 13:26:05;;;;;;;7.03;3.23;;;10.40;99.90;;;;;;5012469;28;20183;-62
2023/01/03 13:28:34;;;;;;;7.07;3.40;;;10.50;99.90;;;;;;5014727;28;20648;-61
2023/01/03 13:31:17;;;;;;;5.20;3.50;;;10.70;99.90;;;;;;5019734;28;20195;-63
2023/01/03 13:33:54;;;;;;;7.90;3.07;;;10.60;99.90;;;;;;5026878;28;20195;-60
2023/01/03 13:36:21;;;;;;;9.73;4.27;;;10.60;99.90;;;;;;5018255;28;20187;-61
2023/01/03 13:38:47;;;;;;;7.57;3.90;;;10.70;99.90;;;;;;5018199;28;20714;-62
2023/01/03 13:41:34;;;;;;;3.87;3.57;;;10.60;99.90;;;;;;5026122;28;20218;-62
2023/01/03 13:44:19;;;;;;;7.13;3.93;;;10.50;99.90;;;;;;5018923;28;20215;-62
2023/01/03 13:46:45;;;;;;;7.27;3.63;;;10.40;99.90;;;;;;5018485;28;20187;-63
2023/01/03 13:49:22;;;;;;;8.07;3.77;;;10.40;99.90;;;;;;5018690;28;20187;-65
2023/01/03 13:51:52;;;;;;;4.97;3.60;;;10.40;99.90;;;;;;5022123;28;20281;-62
2023/01/03 13:54:18;;;;;;;5.07;4.23;;;10.60;99.90;;;;;;5019928;28;20249;-62
2023/01/03 13:56:43;;;;;;;7.00;4.27;;;10.60;99.90;;;;;;5018730;28;20191;-61
2023/01/03 13:59:29;;;;;;;8.05;5.93;;;10.70;99.90;;;;;;5018492;28;20183;-62
2023/01/03 14:02:09;;;;;;;7.93;4.23;;;10.70;99.90;;;;;;5017922;28;20235;-62
2023/01/03 14:04:53;;;;;;;5.00;3.67;;;10.60;99.90;;;;;;5018517;28;20195;-61
2023/01/03 14:07:27;;;;;;;8.77;4.87;;;10.60;99.90;;;;;;5017954;28;20183;-62
2023/01/03 14:10:27;;;;;;;8.53;4.77;;;10.60;99.90;;;;;;5030274;28;20190;-61
2023/01/03 14:13:07;;;;;;;7.47;3.90;;;10.50;99.90;;;;;;5018459;28;20182;-62
2023/01/03 14:15:33;;;;;;;6.50;4.03;;;10.50;99.90;;;;;;5034445;28;20185;-62